Time;durP1;ratioP1;P1;durP2;ratioP2;P2;SDS_P1;SDS_P2;PMS_P1;PMS_P2;Temp;Humidity;BMP_temperature;BMP_pressure;BME280_temperature;BME280_humidity;BME280_pressure;Samples;Min_cycle;Max_cycle;Signal;HPM_P1;HPM_P2
2022/11/15 00:00:50;;;;;;;24.80;18.05;;;;;;;6.52;100.00;100825.53;5072039;28;20111;-34
2022/11/15 00:03:22;;;;;;;29.55;17.40;;;;;;;6.62;100.00;100847.44;5073002;28;20075;-34
2022/11/15 00:05:47;;;;;;;27.52;18.38;;;;;;;6.62;100.00;100850.13;5071771;28;20028;-34
2022/11/15 00:08:13;;;;;;;26.40;18.88;;;;;;;6.54;100.00;100826.13;5072589;28;20114;-34
2022/11/15 00:10:38;;;;;;;30.48;19.00;;;;;;;6.69;100.00;100842.91;5072092;28;20465;-34
2022/11/15 00:13:08;;;;;;;29.73;18.20;;;;;;;6.70;100.00;100847.25;5072217;28;20031;-34
2022/11/15 00:15:36;;;;;;;25.60;18.55;;;;;;;6.74;100.00;100835.06;5071691;28;20622;-34
2022/11/15 00:18:01;;;;;;;24.92;17.60;;;;;;;6.76;100.00;100834.84;5074279;28;20484;-34
2022/11/15 00:20:27;;;;;;;25.33;18.38;;;;;;;6.72;100.00;100821.00;5075396;28;20033;-34
2022/11/15 00:22:52;;;;;;;23.57;16.63;;;;;;;6.80;100.00;100825.34;5075422;28;20105;-34
2022/11/15 00:25:17;;;;;;;25.67;17.17;;;;;;;6.85;100.00;100839.81;5075667;28;20036;-34
2022/11/15 00:27:43;;;;;;;23.27;17.23;;;;;;;6.88;100.00;100835.88;5075876;28;20353;-34
2022/11/15 00:30:08;;;;;;;25.10;17.47;;;;;;;6.90;100.00;100833.81;5074953;28;20028;-34
2022/11/15 00:32:34;;;;;;;30.02;18.98;;;;;;;6.88;100.00;100819.75;5075452;28;20017;-34
2022/11/15 00:34:59;;;;;;;25.77;18.97;;;;;;;6.83;100.00;100815.00;5075104;28;20187;-34
2022/11/15 00:37:24;;;;;;;25.40;17.67;;;;;;;6.97;100.00;100823.88;5075481;28;20024;-34
2022/11/15 00:39:50;;;;;;;24.43;18.30;;;;;;;7.00;100.00;100826.16;5075363;28;20025;-34
2022/11/15 00:42:15;;;;;;;23.93;17.87;;;;;;;7.03;100.00;100832.97;5075275;28;20035;-34
2022/11/15 00:44:40;;;;;;;24.63;17.87;;;;;;;7.02;100.00;100813.31;5075034;28;20112;-34
2022/11/15 00:47:06;;;;;;;24.37;18.13;;;;;;;7.08;100.00;100820.59;5074920;28;20028;-35
2022/11/15 00:49:31;;;;;;;21.63;15.70;;;;;;;7.13;100.00;100820.78;5075033;28;20029;-34
2022/11/15 00:51:56;;;;;;;24.23;18.17;;;;;;;7.14;100.00;100810.84;5075118;28;20032;-34
2022/11/15 00:54:21;;;;;;;22.73;17.93;;;;;;;7.04;100.00;100795.13;5074551;28;20029;-34
2022/11/15 00:56:47;;;;;;;22.77;17.53;;;;;;;7.06;100.00;100794.91;5075307;28;20031;-34
2022/11/15 00:59:12;;;;;;;21.97;17.37;;;;;;;7.23;100.00;100802.34;5075166;28;20101;-34
2022/11/15 01:01:37;;;;;;;20.67;17.13;;;;;;;7.17;100.00;100787.06;5074308;28;20542;-35
2022/11/15 01:04:03;;;;;;;23.17;17.23;;;;;;;7.30;100.00;100802.31;5075120;28;20024;-34
2022/11/15 01:06:28;;;;;;;23.73;17.77;;;;;;;7.33;100.00;100799.22;5074602;28;20150;-34
2022/11/15 01:08:53;;;;;;;23.03;17.77;;;;;;;7.40;100.00;100801.88;5074570;28;20362;-34
2022/11/15 01:11:19;;;;;;;25.40;18.00;;;;;;;7.41;100.00;100801.66;5074477;28;20067;-34
2022/11/15 01:13:44;;;;;;;22.93;17.43;;;;;;;7.46;100.00;100799.16;5074976;28;20074;-34
2022/11/15 01:16:16;;;;;;;23.00;17.57;;;;;;;7.49;100.00;100797.94;5074447;28;20024;-34
2022/11/15 01:18:42;;;;;;;21.33;17.10;;;;;;;7.48;100.00;100793.59;5073238;28;20480;-34
2022/11/15 01:21:18;;;;;;;25.67;17.77;;;;;;;7.58;100.00;100795.84;5074300;28;20035;-34
2022/11/15 01:23:44;;;;;;;22.38;17.08;;;;;;;7.52;100.00;100777.88;5074563;28;20040;-34
2022/11/15 01:26:13;;;;;;;22.50;16.42;;;;;;;7.66;100.00;100792.91;5073804;28;20034;-34
2022/11/15 01:28:40;;;;;;;22.27;17.27;;;;;;;7.68;100.00;100788.13;5073889;28;20029;-35
2022/11/15 01:31:12;;;;;;;23.13;17.73;;;;;;;7.72;100.00;100790.19;5073929;28;20028;-34
2022/11/15 01:33:38;;;;;;;20.63;17.63;;;;;;;7.77;100.00;100778.78;5073191;28;20579;-34
2022/11/15 01:36:05;;;;;;;21.17;17.15;;;;;;;7.82;100.00;100778.97;5073821;28;20036;-34
2022/11/15 01:38:31;;;;;;;22.73;16.92;;;;;;;7.85;100.00;100772.31;5073975;28;20040;-34
2022/11/15 01:40:56;;;;;;;22.92;17.92;;;;;;;7.89;100.00;100777.06;5073863;28;20333;-34
2022/11/15 01:43:27;;;;;;;21.00;16.33;;;;;;;7.89;100.00;100768.16;5073638;28;20392;-34
2022/11/15 01:46:00;;;;;;;22.40;17.33;;;;;;;7.90;100.00;100778.69;5073840;28;20042;-34
2022/11/15 01:48:32;;;;;;;20.42;16.58;;;;;;;7.92;100.00;100767.75;5073885;28;20531;-34
2022/11/15 01:50:59;;;;;;;20.13;17.23;;;;;;;7.83;100.00;100752.88;5074828;28;20110;-34
2022/11/15 01:53:26;;;;;;;19.00;17.00;;;;;;;7.92;100.00;100767.75;5073892;28;20024;-34
2022/11/15 01:55:52;;;;;;;22.05;17.67;;;;;;;8.02;100.00;100770.78;5073440;28;20473;-34
2022/11/15 01:58:18;;;;;;;21.13;17.33;;;;;;;8.06;100.00;100771.19;5074069;28;20047;-34
2022/11/15 02:00:43;;;;;;;21.35;17.83;;;;;;;8.07;100.00;100773.66;5073625;28;20020;-34
2022/11/15 02:03:09;;;;;;;19.10;16.57;;;;;;;8.09;100.00;100765.34;5073329;28;20106;-34
2022/11/15 02:05:36;;;;;;;19.35;16.85;;;;;;;8.18;100.00;100775.66;5073468;28;20025;-35
2022/11/15 02:08:01;;;;;;;26.23;18.00;;;;;;;8.19;100.00;100765.69;5073429;28;20116;-34
2022/11/15 02:10:27;;;;;;;22.45;18.45;;;;;;;8.26;100.00;100761.13;5073376;28;20111;-34
2022/11/15 02:12:54;;;;;;;20.60;16.90;;;;;;;8.25;100.00;100754.09;5073566;28;20388;-34
2022/11/15 02:15:20;;;;;;;22.67;17.27;;;;;;;8.31;100.00;100753.19;5073329;28;20021;-34
2022/11/15 02:18:03;;;;;;;20.90;17.17;;;;;;;8.30;100.00;100748.03;5072192;28;20036;-34
2022/11/15 02:21:13;;;;;;;19.17;16.25;;;;;;;8.36;100.00;100749.84;5073959;28;20020;-34
2022/11/15 02:24:03;;;;;;;20.80;16.63;;;;;;;8.24;100.00;100720.91;4991607;28;20451;-34
2022/11/15 02:27:04;;;;;;;22.17;18.08;;;;;;;8.42;100.00;100744.44;4976106;28;20030;-34
2022/11/15 02:29:51;;;;;;;22.05;17.73;;;;;;;8.45;100.00;100745.88;4991479;28;20066;-34
2022/11/15 02:32:59;;;;;;;23.83;17.83;;;;;;;8.42;100.00;100733.66;4991917;28;20057;-34
2022/11/15 02:35:43;;;;;;;23.08;17.73;;;;;;;8.47;100.00;100727.63;4933982;29;20052;-34
2022/11/15 02:38:21;;;;;;;20.63;17.55;;;;;;;8.58;100.00;100736.84;4933427;29;20071;-34
2022/11/15 02:41:00;;;;;;;22.73;18.30;;;;;;;8.62;100.00;100728.09;4933099;29;20035;-34
2022/11/15 02:43:58;;;;;;;22.30;18.60;;;;;;;8.65;100.00;100727.66;4933524;29;20051;-34
2022/11/15 02:49:28;;;;;;;22.92;19.25;;;;;;;8.72;100.00;100727.59;4933484;29;20095;-34
2022/11/15 02:51:55;;;;;;;27.33;19.67;;;;;;;8.77;100.00;100722.38;4933212;29;20048;-34
2022/11/15 02:54:23;;;;;;;27.58;20.30;;;;;;;8.74;100.00;100709.34;4933709;29;20044;-34
2022/11/15 02:56:51;;;;;;;27.65;19.95;;;;;;;8.86;100.00;100715.63;4933081;29;20704;-34
2022/11/15 02:59:56;;;;;;;26.33;20.15;;;;;;;8.90;100.00;100713.34;4935360;28;20031;-34
2022/11/15 03:02:36;;;;;;;25.15;21.05;;;;;;;8.89;100.00;100712.50;5011427;28;20383;-34
2022/11/15 03:05:07;;;;;;;27.58;21.58;;;;;;;9.00;100.00;100706.38;5010990;28;20382;-34
2022/11/15 03:07:42;;;;;;;26.83;20.95;;;;;;;9.01;100.00;100713.41;5010693;28;20115;-34
2022/11/15 03:10:16;;;;;;;24.80;19.98;;;;;;;9.00;100.00;100717.16;5060987;28;20504;-34
2022/11/15 03:12:55;;;;;;;25.58;21.33;;;;;;;9.09;100.00;100714.19;5072767;28;20035;-34
2022/11/15 03:15:36;;;;;;;25.70;20.33;;;;;;;9.08;100.00;100712.50;5072322;28;20028;-34
2022/11/15 03:18:07;;;;;;;27.85;19.90;;;;;;;9.06;100.00;100712.72;5072932;28;20031;-34
2022/11/15 03:20:36;;;;;;;24.85;20.88;;;;;;;9.08;100.00;100715.19;5072825;28;20028;-34
2022/11/15 03:23:06;;;;;;;25.90;20.75;;;;;;;9.12;100.00;100713.72;5071521;28;20398;-34
2022/11/15 03:25:34;;;;;;;24.05;19.90;;;;;;;9.13;100.00;100715.38;5072851;28;20028;-34
2022/11/15 03:28:03;;;;;;;28.45;21.42;;;;;;;9.10;100.00;100711.25;5073222;28;20384;-34
2022/11/15 03:30:31;;;;;;;28.50;21.35;;;;;;;9.12;100.00;100716.41;5072141;28;20213;-34
2022/11/15 03:32:59;;;;;;;28.25;21.08;;;;;;;9.11;100.00;100714.75;5073082;28;20365;-34
2022/11/15 03:35:28;;;;;;;26.08;20.33;;;;;;;9.16;100.00;100723.00;5072438;28;20035;-34
2022/11/15 03:38:08;;;;;;;26.52;21.08;;;;;;;9.18;100.00;100726.31;5072645;28;20105;-34
2022/11/15 03:40:45;;;;;;;24.30;20.25;;;;;;;9.22;100.00;100720.25;5072488;28;20048;-34
2022/11/15 03:43:39;;;;;;;29.02;21.02;;;;;;;9.22;100.00;100727.50;5073134;28;20043;-34
2022/11/15 03:46:12;;;;;;;24.52;19.77;;;;;;;9.18;100.00;100710.13;5072284;28;20036;-34
2022/11/15 03:48:45;;;;;;;25.73;19.65;;;;;;;9.20;100.00;100719.63;5072282;28;20036;-34
2022/11/15 03:51:11;;;;;;;27.17;20.40;;;;;;;9.22;100.00;100716.69;5072280;28;20369;-34
2022/11/15 03:53:36;;;;;;;26.85;21.67;;;;;;;9.17;100.00;100703.88;5075766;28;20063;-34
2022/11/15 03:56:02;;;;;;;24.93;19.90;;;;;;;9.18;100.00;100710.13;5075917;28;20032;-35
2022/11/15 03:58:27;;;;;;;23.53;20.13;;;;;;;9.24;100.00;100711.94;5076674;28;20703;-34
2022/11/15 04:00:52;;;;;;;25.53;20.43;;;;;;;9.23;100.00;100715.69;5075938;28;20024;-34
2022/11/15 04:03:18;;;;;;;24.53;19.70;;;;;;;9.23;100.00;100710.28;5075836;28;20060;-34
2022/11/15 04:05:43;;;;;;;24.67;19.60;;;;;;;9.24;100.00;100720.03;5075854;28;20024;-34
2022/11/15 04:08:08;;;;;;;27.13;20.60;;;;;;;9.24;100.00;100722.72;5076441;28;20036;-34
2022/11/15 04:10:33;;;;;;;26.73;21.80;;;;;;;9.23;100.00;100713.81;5075988;28;20124;-34
2022/11/15 04:12:59;;;;;;;26.47;19.97;;;;;;;9.27;100.00;100719.56;5076195;28;20109;-34
2022/11/15 04:15:25;;;;;;;26.20;19.93;;;;;;;9.26;100.00;100709.81;5075905;28;20369;-34
2022/11/15 04:17:51;;;;;;;;;;;;;;;9.28;100.00;100711.25;5076034;28;20028;-34
2022/11/15 04:25:50;;;;;;;;;;;;;;;9.34;100.00;100714.09;5076375;28;20067;-34
2022/11/15 04:28:16;;;;;;;29.77;21.80;;;;;;;9.37;100.00;100703.69;5075821;28;19915;-34
2022/11/15 04:30:41;;;;;;;33.13;23.60;;;;;;;9.41;100.00;100701.34;5075346;28;20384;-34
2022/11/15 04:33:06;;;;;;;28.85;22.73;;;;;;;9.27;100.00;100693.41;5075551;28;20021;-34
2022/11/15 04:35:32;;;;;;;30.80;22.73;;;;;;;9.39;100.00;100706.97;5075183;28;20186;-34
2022/11/15 04:37:58;;;;;;;34.45;22.95;;;;;;;9.38;100.00;100707.19;5075228;28;20024;-34
2022/11/15 04:40:23;;;;;;;36.22;24.88;;;;;;;9.32;100.00;100687.34;5075205;28;20041;-34
2022/11/15 04:42:49;;;;;;;32.17;23.27;;;;;;;9.43;100.00;100705.47;5075199;28;20033;-34
2022/11/15 04:45:14;;;;;;;33.93;25.37;;;;;;;9.45;100.00;100711.44;5075151;28;20361;-34
2022/11/15 04:47:42;;;;;;;30.38;23.70;;;;;;;9.41;100.00;100722.91;5075209;28;20025;-34
2022/11/15 04:50:08;;;;;;;33.58;23.75;;;;;;;9.45;100.00;100716.84;5074964;28;20032;-34
2022/11/15 04:52:33;;;;;;;32.90;23.38;;;;;;;9.41;100.00;100698.63;5074661;28;20082;-34
2022/11/15 04:54:58;;;;;;;33.73;23.67;;;;;;;9.48;100.00;100715.59;5073657;28;20072;-34
2022/11/15 04:57:24;;;;;;;29.97;23.50;;;;;;;9.44;100.00;100706.28;5074548;28;20496;-34
2022/11/15 04:59:49;;;;;;;29.43;23.30;;;;;;;9.47;100.00;100706.66;5074862;28;20115;-34
2022/11/15 05:02:14;;;;;;;28.80;21.60;;;;;;;9.52;100.00;100708.69;5075021;28;20032;-34
2022/11/15 05:04:40;;;;;;;31.67;23.30;;;;;;;9.48;100.00;100705.59;5074209;28;20027;-34
2022/11/15 05:07:05;;;;;;;33.07;22.77;;;;;;;9.55;100.00;100711.72;5074679;28;20056;-34
2022/11/15 05:09:30;;;;;;;30.50;22.85;;;;;;;9.46;100.00;100698.78;5074865;28;20029;-34
2022/11/15 05:11:56;;;;;;;29.07;22.47;;;;;;;9.50;100.00;100698.09;5074782;28;20052;-34
2022/11/15 05:14:21;;;;;;;28.87;22.23;;;;;;;9.50;100.00;100700.78;5075324;28;20377;-34
2022/11/15 05:16:46;;;;;;;29.97;21.07;;;;;;;9.46;100.00;100702.28;5074488;28;20020;-34
2022/11/15 05:19:12;;;;;;;33.70;23.20;;;;;;;9.57;100.00;100708.00;5074647;28;20194;-34
2022/11/15 05:21:37;;;;;;;31.53;22.50;;;;;;;9.54;100.00;100710.09;5074920;28;20089;-34
2022/11/15 05:24:03;;;;;;;29.00;22.00;;;;;;;9.58;100.00;100705.06;5074324;28;20099;-34
2022/11/15 05:26:29;;;;;;;30.88;22.38;;;;;;;9.58;100.00;100696.16;5072499;28;20397;-34
2022/11/15 05:28:58;;;;;;;29.40;21.83;;;;;;;9.58;100.00;100701.56;5074167;28;20122;-34
2022/11/15 05:31:25;;;;;;;32.22;20.75;;;;;;;9.57;100.00;100702.59;5074118;28;20052;-34
2022/11/15 05:33:51;;;;;;;29.77;21.30;;;;;;;9.55;100.00;100700.94;5074230;28;20448;-34
2022/11/15 05:36:26;;;;;;;30.27;21.20;;;;;;;9.60;100.00;100696.72;5073826;28;20032;-34
2022/11/15 05:38:53;;;;;;;28.05;21.50;;;;;;;9.63;100.00;100699.81;5074043;28;20447;-34
2022/11/15 05:41:22;;;;;;;31.23;20.85;;;;;;;9.63;100.00;100705.22;5073723;28;20499;-34
2022/11/15 05:43:49;;;;;;;27.50;21.13;;;;;;;9.60;100.00;100691.34;5073657;28;20035;-34
2022/11/15 05:46:14;;;;;;;29.40;21.77;;;;;;;9.60;100.00;100685.94;5073935;28;20066;-34
2022/11/15 05:48:45;;;;;;;27.63;20.88;;;;;;;9.64;100.00;100695.22;5074149;28;20033;-34
2022/11/15 05:51:14;;;;;;;28.05;20.45;;;;;;;9.61;100.00;100698.38;5073654;28;20469;-34
2022/11/15 05:53:39;;;;;;;30.55;21.05;;;;;;;9.63;100.00;100694.41;5073453;28;20460;-34
2022/11/15 05:56:06;;;;;;;26.23;20.10;;;;;;;9.51;100.00;100678.13;5073701;28;20024;-35
2022/11/15 05:58:32;;;;;;;27.13;20.05;;;;;;;9.54;100.00;100691.19;5074640;28;20473;-34
2022/11/15 06:00:59;;;;;;;28.75;20.75;;;;;;;9.52;100.00;100690.63;5073353;28;20436;-34
2022/11/15 06:03:24;;;;;;;29.23;19.88;;;;;;;9.59;100.00;100701.31;5073351;28;20565;-34
2022/11/15 06:05:49;;;;;;;26.53;20.30;;;;;;;9.59;100.00;100705.88;5073498;28;20024;-34
2022/11/15 06:08:15;;;;;;;28.40;21.03;;;;;;;9.60;100.00;100715.63;5072838;28;20036;-34
2022/11/15 06:10:40;;;;;;;29.30;20.60;;;;;;;9.56;100.00;100701.75;5073822;28;20162;-34
2022/11/15 06:13:05;;;;;;;27.43;18.97;;;;;;;9.61;100.00;100710.00;5073355;28;20024;-34
2022/11/15 06:15:33;;;;;;;26.50;20.27;;;;;;;9.63;100.00;100709.78;5072654;28;20076;-34
2022/11/15 06:17:59;;;;;;;26.98;20.10;;;;;;;9.67;100.00;100714.50;5073621;28;20286;-34
2022/11/15 06:20:26;;;;;;;28.13;20.38;;;;;;;9.66;100.00;100712.00;5073153;28;20029;-34
2022/11/15 06:23:03;;;;;;;26.65;20.08;;;;;;;9.68;100.00;100715.31;5073289;28;20039;-34
2022/11/15 06:25:29;;;;;;;29.40;20.63;;;;;;;9.60;100.00;100702.97;5073620;28;20043;-34
2022/11/15 06:27:56;;;;;;;28.52;19.85;;;;;;;9.69;100.00;100725.06;5073603;28;20024;-34
2022/11/15 06:30:22;;;;;;;28.52;21.10;;;;;;;9.67;100.00;100725.31;5073871;28;20033;-34
2022/11/15 06:32:48;;;;;;;29.35;20.38;;;;;;;9.63;100.00;100718.72;5072893;28;20511;-34
2022/11/15 06:35:14;;;;;;;26.80;21.07;;;;;;;9.65;100.00;100713.91;5073294;28;20021;-35
2022/11/15 06:37:39;;;;;;;29.25;20.50;;;;;;;9.71;100.00;100729.19;5073253;28;20259;-34
2022/11/15 06:40:06;;;;;;;27.92;20.17;;;;;;;9.73;100.00;100729.78;5071685;28;20033;-34
2022/11/15 06:42:32;;;;;;;28.23;21.58;;;;;;;9.72;100.00;100724.63;5072830;28;20036;-34
2022/11/15 06:44:57;;;;;;;28.02;20.13;;;;;;;9.72;100.00;100724.63;5073806;28;20036;-34
2022/11/15 06:47:22;;;;;;;21.63;18.97;;;;;;;9.74;100.00;100726.03;5073315;28;20199;-34
2022/11/15 06:49:47;;;;;;;24.83;20.07;;;;;;;9.68;100.00;100728.81;5072980;28;20480;-35
2022/11/15 06:52:13;;;;;;;27.50;19.67;;;;;;;9.72;100.00;100727.31;5073010;28;20032;-35
2022/11/15 06:54:38;;;;;;;24.63;20.50;;;;;;;9.66;100.00;100728.22;5072341;28;20067;-35
2022/11/15 06:57:04;;;;;;;24.57;19.63;;;;;;;9.72;100.00;100743.53;5072517;28;20064;-34
2022/11/15 06:59:29;;;;;;;22.30;18.30;;;;;;;9.71;100.00;100747.25;5072889;28;20120;-34
2022/11/15 07:01:55;;;;;;;24.53;19.73;;;;;;;9.72;100.00;100748.94;5072786;28;20043;-34
2022/11/15 07:04:20;;;;;;;25.13;18.47;;;;;;;9.67;100.00;100741.50;5072479;28;20036;-34
2022/11/15 07:06:48;;;;;;;25.93;19.10;;;;;;;9.69;100.00;100746.66;5072549;28;20142;-34
2022/11/15 07:09:14;;;;;;;24.05;18.60;;;;;;;9.63;100.00;100739.50;5073211;28;20036;-34
2022/11/15 07:11:39;;;;;;;24.90;19.33;;;;;;;9.70;100.00;100751.00;5072539;28;20052;-34
2022/11/15 07:14:05;;;;;;;22.20;17.48;;;;;;;9.68;100.00;100747.72;5073381;28;20115;-34
2022/11/15 07:16:30;;;;;;;22.60;17.43;;;;;;;9.66;100.00;100747.97;5073001;28;20107;-34
2022/11/15 07:18:56;;;;;;;23.00;17.27;;;;;;;9.67;100.00;100748.78;5072984;28;20020;-34
2022/11/15 07:21:21;;;;;;;22.30;16.03;;;;;;;9.67;100.00;100757.72;5072232;28;20273;-34
2022/11/15 07:23:46;;;;;;;19.73;16.00;;;;;;;9.66;100.00;100750.66;5072268;28;20126;-34
2022/11/15 07:26:11;;;;;;;21.83;16.67;;;;;;;9.64;100.00;100760.03;5073657;28;20028;-34
2022/11/15 07:28:37;;;;;;;23.63;16.60;;;;;;;9.66;100.00;100756.06;5077225;28;20024;-34
2022/11/15 07:31:07;;;;;;;22.10;16.40;;;;;;;9.62;100.00;100754.03;5076425;28;20476;-34
2022/11/15 07:33:33;;;;;;;20.88;15.88;;;;;;;9.59;100.00;100755.31;5076654;28;20020;-34
2022/11/15 07:36:01;;;;;;;18.08;16.05;;;;;;;9.63;100.00;100751.09;5076717;28;20071;-34
2022/11/15 07:38:27;;;;;;;19.85;15.45;;;;;;;9.66;100.00;100753.38;5076553;28;20025;-34
2022/11/15 07:41:01;;;;;;;17.90;15.43;;;;;;;9.66;100.00;100755.22;5074969;28;20046;-34
2022/11/15 07:43:30;;;;;;;19.60;15.20;;;;;;;9.68;100.00;100759.34;5076072;28;20029;-34
2022/11/15 07:45:56;;;;;;;21.33;15.50;;;;;;;9.63;100.00;100739.50;5076127;28;20024;-34
2022/11/15 07:48:22;;;;;;;;;;;;;;;9.73;100.00;100745.16;5077254;28;20034;-34
2022/11/15 07:50:47;;;;;;;17.17;13.85;;;;;;;9.73;100.00;100742.47;5075793;28;19999;-34
2022/11/15 07:53:13;;;;;;;15.90;13.43;;;;;;;9.74;100.00;100744.09;5076420;28;20452;-34
2022/11/15 07:55:41;;;;;;;18.70;13.77;;;;;;;9.74;100.00;100744.94;5076179;28;20266;-34
2022/11/15 07:58:09;;;;;;;17.88;13.50;;;;;;;9.69;100.00;100738.56;5076672;28;20048;-34
2022/11/15 08:00:35;;;;;;;21.33;14.40;;;;;;;9.69;100.00;100727.78;5075970;28;20029;-34
2022/11/15 08:03:02;;;;;;;20.08;13.60;;;;;;;9.75;100.00;100741.16;5076332;28;20024;-34
2022/11/15 08:05:27;;;;;;;16.27;13.07;;;;;;;9.78;100.00;100742.59;5076268;28;20024;-34
2022/11/15 08:07:55;;;;;;;15.80;12.73;;;;;;;9.79;100.00;100749.66;5076728;28;20036;-34
2022/11/15 08:10:21;;;;;;;19.60;12.63;;;;;;;9.81;100.00;100758.38;5075469;28;20437;-34
2022/11/15 08:12:46;;;;;;;16.63;13.43;;;;;;;9.83;100.00;100753.56;5076066;28;20032;-34
2022/11/15 08:15:11;;;;;;;18.67;12.97;;;;;;;9.86;100.00;100757.66;5075507;28;20031;-34
2022/11/15 08:17:37;;;;;;;17.93;12.90;;;;;;;9.85;100.00;100764.13;5075732;28;20159;-34
2022/11/15 08:20:03;;;;;;;17.17;12.60;;;;;;;9.77;100.00;100751.78;5074145;28;20082;-34
2022/11/15 08:22:28;;;;;;;18.80;12.15;;;;;;;9.86;100.00;100761.22;5075956;28;20326;-34
2022/11/15 08:24:54;;;;;;;14.00;12.50;;;;;;;9.89;100.00;100766.13;5075661;28;20040;-35
2022/11/15 08:27:19;;;;;;;17.73;12.43;;;;;;;9.92;100.00;100762.16;5076222;28;20259;-35
2022/11/15 08:29:45;;;;;;;16.10;11.93;;;;;;;9.94;100.00;100758.16;5075502;28;20024;-34
2022/11/15 08:32:11;;;;;;;13.70;10.98;;;;;;;9.95;100.00;100759.81;5075476;28;20126;-34
2022/11/15 08:34:37;;;;;;;16.60;11.70;;;;;;;10.00;100.00;100754.56;5075424;28;20029;-34
2022/11/15 08:37:02;;;;;;;13.88;12.25;;;;;;;10.01;100.00;100747.28;5075345;28;20495;-34
2022/11/15 08:39:28;;;;;;;13.13;10.07;;;;;;;10.03;100.00;100748.69;5074395;28;20112;-34
2022/11/15 08:41:53;;;;;;;14.20;10.00;;;;;;;10.06;100.00;100745.53;5075136;28;20024;-34
2022/11/15 08:44:18;;;;;;;12.63;10.60;;;;;;;9.91;100.00;100722.72;5074434;28;20120;-34
2022/11/15 08:46:45;;;;;;;16.50;10.53;;;;;;;10.06;100.00;100734.72;5075546;28;20060;-34
2022/11/15 08:49:11;;;;;;;11.82;9.25;;;;;;;10.07;100.00;100732.84;5074988;28;20127;-34
2022/11/15 08:51:36;;;;;;;11.77;9.13;;;;;;;10.06;100.00;100731.22;5075672;28;20048;-34
2022/11/15 08:54:01;;;;;;;11.87;8.40;;;;;;;10.07;100.00;100730.97;5076015;28;20119;-35
2022/11/15 08:56:27;;;;;;;12.52;8.07;;;;;;;10.11;100.00;100725.13;5074162;28;20402;-34
2022/11/15 08:58:52;;;;;;;12.07;9.23;;;;;;;10.03;100.00;100710.88;5075672;28;20548;-33
2022/11/15 09:01:19;;;;;;;8.73;7.60;;;;;;;10.10;100.00;100724.28;5074680;28;20066;-33
2022/11/15 09:03:45;;;;;;;9.93;7.45;;;;;;;10.17;100.00;100726.88;5075160;28;20116;-33
2022/11/15 09:06:10;;;;;;;9.27;7.10;;;;;;;10.18;100.00;100725.84;5075148;28;20040;-33
2022/11/15 09:08:36;;;;;;;8.93;7.60;;;;;;;10.16;100.00;100719.84;5074820;28;20083;-33
2022/11/15 09:11:06;;;;;;;9.07;7.10;;;;;;;10.13;100.00;100717.59;5074748;28;20028;-33
2022/11/15 09:13:31;;;;;;;9.50;7.45;;;;;;;10.14;100.00;100713.84;5074438;28;20112;-33
2022/11/15 09:16:00;;;;;;;9.57;7.20;;;;;;;10.17;100.00;100708.78;5074738;28;20068;-33
2022/11/15 09:18:27;;;;;;;7.22;6.53;;;;;;;10.20;100.00;100705.66;5074666;28;20578;-33
2022/11/15 09:20:59;;;;;;;8.75;6.75;;;;;;;10.23;100.00;100697.06;5074800;28;20025;-33
2022/11/15 09:23:25;;;;;;;8.00;6.10;;;;;;;10.25;100.00;100689.59;5074312;28;20036;-33
2022/11/15 09:25:51;;;;;;;8.70;5.90;;;;;;;10.27;100.00;100689.34;5074379;28;20078;-33
2022/11/15 09:28:16;;;;;;;6.50;5.70;;;;;;;10.28;100.00;100689.09;5074240;28;20082;-33
2022/11/15 09:30:41;;;;;;;7.50;5.40;;;;;;;10.27;100.00;100689.34;5074921;28;20102;-33
2022/11/15 09:33:08;;;;;;;7.93;4.93;;;;;;;10.29;100.00;100685.34;5075049;28;20092;-33
2022/11/15 09:35:34;;;;;;;5.63;4.35;;;;;;;10.33;100.00;100691.09;5074212;28;20033;-33
2022/11/15 09:37:59;;;;;;;4.95;4.20;;;;;;;10.33;100.00;100693.81;5074260;28;20025;-33
2022/11/15 09:40:26;;;;;;;5.63;3.80;;;;;;;10.33;100.00;100691.09;5073912;28;20063;-33
2022/11/15 09:42:57;;;;;;;;;;;;;;;10.38;100.00;100685.81;5074151;28;20473;-33
2022/11/15 09:45:30;;;;;;;4.47;3.60;;;;;;;10.43;100.00;100685.13;5074291;28;19919;-33
2022/11/15 09:48:20;;;;;;;6.97;3.67;;;;;;;10.56;100.00;100690.31;5073814;28;20120;-33
2022/11/15 09:50:50;;;;;;;6.30;3.67;;;;;;;10.55;100.00;100688.69;5074019;28;20032;-34
2022/11/15 09:53:40;;;;;;;4.65;2.60;;;;;;;10.53;100.00;100672.66;5074391;28;20032;-35
2022/11/15 09:56:17;;;;;;;4.97;2.88;;;;;;;10.54;100.00;100678.91;5073623;28;20610;-34
2022/11/15 09:58:46;;;;;;;3.83;2.72;;;;;;;10.51;100.00;100669.38;5073733;28;20470;-33
2022/11/15 10:01:28;;;;;;;3.65;2.53;;;;;;;10.60;100.00;100680.69;5073912;28;20064;-33
2022/11/15 10:03:57;;;;;;;3.72;2.20;;;;;;;10.63;100.00;100676.66;5073868;28;20129;-33
2022/11/15 10:06:26;;;;;;;5.45;2.20;;;;;;;10.63;100.00;100674.78;5073510;28;20119;-33
2022/11/15 10:09:22;;;;;;;4.20;2.25;;;;;;;10.67;100.00;100659.75;5073780;28;20449;-33
2022/11/15 10:11:48;;;;;;;4.00;1.70;;;;;;;10.68;100.00;100658.66;5073771;28;20112;-34
2022/11/15 10:14:19;;;;;;;3.13;1.45;;;;;;;10.76;100.00;100674.56;5072300;28;20417;-33
2022/11/15 10:16:50;;;;;;;2.88;1.25;;;;;;;10.79;100.00;100662.44;5073407;28;20024;-33
2022/11/15 10:19:18;;;;;;;3.63;1.90;;;;;;;10.87;100.00;100659.38;5073631;28;20032;-33
2022/11/15 10:21:56;;;;;;;1.92;1.10;;;;;;;10.89;100.00;100649.16;5073333;28;20037;-33
2022/11/15 10:24:27;;;;;;;2.60;1.27;;;;;;;11.02;100.00;100665.09;5073784;28;20078;-34
2022/11/15 10:26:54;;;;;;;5.28;1.10;;;;;;;10.99;99.99;100671.00;5073459;28;20384;-33
2022/11/15 10:29:24;;;;;;;4.57;1.40;;;;;;;10.99;100.00;100656.66;5073713;28;20020;-33
2022/11/15 10:31:50;;;;;;;2.83;1.17;;;;;;;10.96;100.00;100646.31;5073076;28;20113;-33
2022/11/15 10:34:21;;;;;;;3.40;1.55;;;;;;;10.96;100.00;100652.53;5073723;28;20038;-33
2022/11/15 10:36:58;;;;;;;2.78;0.82;;;;;;;10.90;99.09;100641.84;5073014;28;20032;-33
2022/11/15 10:39:24;;;;;;;2.85;0.70;;;;;;;10.80;99.59;100623.53;5073454;28;20381;-34
2022/11/15 10:41:50;;;;;;;5.20;1.10;;;;;;;10.86;98.52;100625.25;5073037;28;20039;-34
2022/11/15 10:44:31;;;;;;;5.20;1.27;;;;;;;10.78;99.76;100609.38;5071393;28;20041;-34
2022/11/15 10:47:27;;;;;;;3.97;1.08;;;;;;;10.89;97.09;100632.91;5072667;28;20564;-35
2022/11/15 10:50:06;;;;;;;3.30;1.55;;;;;;;10.93;96.70;100625.13;5072952;28;20111;-34
2022/11/15 10:52:34;;;;;;;2.78;0.88;;;;;;;10.97;94.94;100624.41;5073007;28;20088;-34
2022/11/15 10:55:35;;;;;;;3.33;1.10;;;;;;;11.00;92.87;100612.31;5072886;28;20054;-34
2022/11/15 10:58:28;;;;;;;2.67;0.98;;;;;;;11.09;93.24;100617.09;5073091;28;20040;-34
2022/11/15 11:00:53;;;;;;;2.90;1.08;;;;;;;11.18;92.82;100605.91;5072302;28;20452;-34
2022/11/15 11:03:34;;;;;;;2.40;1.00;;;;;;;11.11;91.35;100595.19;5072899;28;20024;-34
2022/11/15 11:06:08;;;;;;;2.50;0.65;;;;;;;11.28;91.84;100606.09;5073144;28;20036;-35
2022/11/15 11:08:33;;;;;;;3.92;0.85;;;;;;;11.34;91.04;100600.53;5073345;28;20056;-34
2022/11/15 11:11:00;;;;;;;3.45;0.85;;;;;;;11.36;90.99;100597.56;5072476;28;20068;-35
2022/11/15 11:13:25;;;;;;;4.72;1.10;;;;;;;11.47;92.59;100596.72;5072371;28;20020;-35
2022/11/15 11:16:13;;;;;;;3.33;1.17;;;;;;;11.57;91.64;100591.50;5072758;28;20040;-35
2022/11/15 11:18:44;;;;;;;3.97;1.10;;;;;;;11.66;91.71;100585.66;5073000;28;20025;-34
2022/11/15 11:21:18;;;;;;;3.97;0.80;;;;;;;11.62;88.61;100574.50;5072732;28;20357;-34
2022/11/15 11:23:53;;;;;;;4.82;1.30;;;;;;;11.63;91.33;100578.03;5073260;28;20029;-34
2022/11/15 11:26:41;;;;;;;5.72;1.40;;;;;;;11.58;90.97;100574.16;5073430;28;20044;-34
2022/11/15 11:29:18;;;;;;;2.50;0.90;;;;;;;11.47;90.93;100577.78;5073431;28;20048;-34